sensor_id;sensor_type;location;lat;lon;timestamp;temperature;humidity
21672;DHT22;10997;52.242;8.168;2023-06-22T00:01:58;18.50;99.90
21672;DHT22;10997;52.242;8.168;2023-06-22T00:06:58;18.50;99.90
21672;DHT22;10997;52.242;8.168;2023-06-22T00:11:59;18.40;99.90
21672;DHT22;10997;52.242;8.168;2023-06-22T00:17:00;18.30;99.90
21672;DHT22;10997;52.242;8.168;2023-06-22T00:22:00;18.30;99.90
21672;DHT22;10997;52.242;8.168;2023-06-22T00:27:03;18.30;99.90
21672;DHT22;10997;52.242;8.168;2023-06-22T00:32:06;18.10;99.90
21672;DHT22;10997;52.242;8.168;2023-06-22T00:37:06;18.10;99.90
21672;DHT22;10997;52.242;8.168;2023-06-22T00:42:07;18.10;99.90
21672;DHT22;10997;52.242;8.168;2023-06-22T00:47:08;18.10;99.90
21672;DHT22;10997;52.242;8.168;2023-06-22T00:52:09;18.20;99.90
21672;DHT22;10997;52.242;8.168;2023-06-22T00:57:15;18.00;99.90
21672;DHT22;10997;52.242;8.168;2023-06-22T01:02:18;17.90;99.90
21672;DHT22;10997;52.242;8.168;2023-06-22T01:07:31;18.00;99.90
21672;DHT22;10997;52.242;8.168;2023-06-22T01:12:42;17.90;99.90
21672;DHT22;10997;52.242;8.168;2023-06-22T01:17:44;17.80;99.90
21672;DHT22;10997;52.242;8.168;2023-06-22T01:28:30;17.90;99.90
21672;DHT22;10997;52.242;8.168;2023-06-22T01:33:33;17.80;99.90
21672;DHT22;10997;52.242;8.168;2023-06-22T01:38:34;17.70;99.90
21672;DHT22;10997;52.242;8.168;2023-06-22T01:43:36;17.70;99.90
21672;DHT22;10997;52.242;8.168;2023-06-22T01:48:38;17.70;99.90
21672;DHT22;10997;52.242;8.168;2023-06-22T01:53:39;17.70;99.90
21672;DHT22;10997;52.242;8.168;2023-06-22T02:04:20;17.70;99.90
21672;DHT22;10997;52.242;8.168;2023-06-22T02:09:22;17.70;99.90
21672;DHT22;10997;52.242;8.168;2023-06-22T02:14:24;17.60;99.90
21672;DHT22;10997;52.242;8.168;2023-06-22T02:19:26;17.50;99.90
21672;DHT22;10997;52.242;8.168;2023-06-22T02:24:27;17.60;99.90
21672;DHT22;10997;52.242;8.168;2023-06-22T02:29:31;17.60;99.90
21672;DHT22;10997;52.242;8.168;2023-06-22T02:34:31;17.60;99.90
21672;DHT22;10997;52.242;8.168;2023-06-22T02:39:34;17.60;99.90
21672;DHT22;10997;52.242;8.168;2023-06-22T02:44:34;17.70;99.90
21672;DHT22;10997;52.242;8.168;2023-06-22T02:49:35;17.70;99.90
21672;DHT22;10997;52.242;8.168;2023-06-22T02:54:36;17.70;99.90
21672;DHT22;10997;52.242;8.168;2023-06-22T02:59:36;17.70;99.90
21672;DHT22;10997;52.242;8.168;2023-06-22T03:04:41;17.60;99.90
21672;DHT22;10997;52.242;8.168;2023-06-22T03:09:42;17.60;99.90
21672;DHT22;10997;52.242;8.168;2023-06-22T03:14:43;17.60;99.90
21672;DHT22;10997;52.242;8.168;2023-06-22T03:19:44;17.60;99.90
21672;DHT22;10997;52.242;8.168;2023-06-22T03:24:44;17.60;99.90
21672;DHT22;10997;52.242;8.168;2023-06-22T03:29:45;17.60;99.90
21672;DHT22;10997;52.242;8.168;2023-06-22T03:34:45;17.60;99.90
21672;DHT22;10997;52.242;8.168;2023-06-22T03:39:49;17.60;99.90
21672;DHT22;10997;52.242;8.168;2023-06-22T03:44:50;17.60;99.90
21672;DHT22;10997;52.242;8.168;2023-06-22T03:49:50;17.70;99.90
21672;DHT22;10997;52.242;8.168;2023-06-22T03:54:55;17.80;99.90
21672;DHT22;10997;52.242;8.168;2023-06-22T03:59:57;17.70;99.90
21672;DHT22;10997;52.242;8.168;2023-06-22T04:04:58;17.80;99.90
21672;DHT22;10997;52.242;8.168;2023-06-22T04:09:58;17.90;99.90
21672;DHT22;10997;52.242;8.168;2023-06-22T04:14:59;18.00;99.90
21672;DHT22;10997;52.242;8.168;2023-06-22T04:20:00;18.00;99.90
21672;DHT22;10997;52.242;8.168;2023-06-22T04:25:00;18.20;99.90
21672;DHT22;10997;52.242;8.168;2023-06-22T04:30:01;18.30;99.90
21672;DHT22;10997;52.242;8.168;2023-06-22T04:35:03;18.60;99.90
21672;DHT22;10997;52.242;8.168;2023-06-22T04:40:05;18.80;99.90
21672;DHT22;10997;52.242;8.168;2023-06-22T04:45:07;19.10;99.90
21672;DHT22;10997;52.242;8.168;2023-06-22T04:50:07;19.30;99.90
21672;DHT22;10997;52.242;8.168;2023-06-22T04:55:08;19.50;99.90
21672;DHT22;10997;52.242;8.168;2023-06-22T05:00:09;19.60;99.90
21672;DHT22;10997;52.242;8.168;2023-06-22T05:05:13;19.80;99.90
21672;DHT22;10997;52.242;8.168;2023-06-22T05:10:14;19.90;99.90
21672;DHT22;10997;52.242;8.168;2023-06-22T05:15:15;20.00;99.90
21672;DHT22;10997;52.242;8.168;2023-06-22T05:20:15;20.20;99.90
21672;DHT22;10997;52.242;8.168;2023-06-22T05:25:18;20.30;99.90
21672;DHT22;10997;52.242;8.168;2023-06-22T05:30:19;20.50;99.90
21672;DHT22;10997;52.242;8.168;2023-06-22T05:35:19;20.70;99.90
21672;DHT22;10997;52.242;8.168;2023-06-22T05:40:20;20.90;99.90
21672;DHT22;10997;52.242;8.168;2023-06-22T05:45:21;21.20;99.90
21672;DHT22;10997;52.242;8.168;2023-06-22T05:50:21;21.30;99.90
21672;DHT22;10997;52.242;8.168;2023-06-22T05:55:22;21.50;99.90
21672;DHT22;10997;52.242;8.168;2023-06-22T06:00:22;21.50;99.90
21672;DHT22;10997;52.242;8.168;2023-06-22T06:05:23;21.80;99.90
21672;DHT22;10997;52.242;8.168;2023-06-22T06:10:25;21.80;99.90
21672;DHT22;10997;52.242;8.168;2023-06-22T06:15:26;21.90;99.90
21672;DHT22;10997;52.242;8.168;2023-06-22T06:20:27;22.10;99.90
21672;DHT22;10997;52.242;8.168;2023-06-22T06:25:30;22.10;99.90
21672;DHT22;10997;52.242;8.168;2023-06-22T06:30:31;22.20;99.90
21672;DHT22;10997;52.242;8.168;2023-06-22T06:35:31;22.50;99.90
21672;DHT22;10997;52.242;8.168;2023-06-22T06:40:32;22.70;99.90
21672;DHT22;10997;52.242;8.168;2023-06-22T06:45:33;23.00;99.90
21672;DHT22;10997;52.242;8.168;2023-06-22T06:50:34;23.30;99.90
21672;DHT22;10997;52.242;8.168;2023-06-22T06:55:35;23.40;99.90
21672;DHT22;10997;52.242;8.168;2023-06-22T07:00:36;23.50;99.90
21672;DHT22;10997;52.242;8.168;2023-06-22T07:05:37;23.70;99.90
21672;DHT22;10997;52.242;8.168;2023-06-22T07:10:37;23.80;99.90
21672;DHT22;10997;52.242;8.168;2023-06-22T07:15:38;23.70;99.90
21672;DHT22;10997;52.242;8.168;2023-06-22T07:20:39;23.60;99.90
21672;DHT22;10997;52.242;8.168;2023-06-22T07:25:39;23.50;99.90
21672;DHT22;10997;52.242;8.168;2023-06-22T07:30:40;23.60;99.90
21672;DHT22;10997;52.242;8.168;2023-06-22T07:35:40;23.80;99.90
21672;DHT22;10997;52.242;8.168;2023-06-22T07:40:41;24.00;99.90
21672;DHT22;10997;52.242;8.168;2023-06-22T07:45:48;24.10;99.90
21672;DHT22;10997;52.242;8.168;2023-06-22T07:50:52;24.00;99.90
21672;DHT22;10997;52.242;8.168;2023-06-22T07:55:53;24.00;99.90
21672;DHT22;10997;52.242;8.168;2023-06-22T08:00:54;23.80;99.90
21672;DHT22;10997;52.242;8.168;2023-06-22T08:05:55;23.90;99.90
21672;DHT22;10997;52.242;8.168;2023-06-22T08:10:55;23.90;99.90
21672;DHT22;10997;52.242;8.168;2023-06-22T08:15:56;23.70;99.90
21672;DHT22;10997;52.242;8.168;2023-06-22T08:20:57;23.50;99.90
21672;DHT22;10997;52.242;8.168;2023-06-22T08:25:57;23.40;99.90
21672;DHT22;10997;52.242;8.168;2023-06-22T08:30:59;23.60;99.90
21672;DHT22;10997;52.242;8.168;2023-06-22T08:36:00;23.60;99.90
21672;DHT22;10997;52.242;8.168;2023-06-22T08:41:01;23.70;99.90
21672;DHT22;10997;52.242;8.168;2023-06-22T08:46:01;23.90;99.90
21672;DHT22;10997;52.242;8.168;2023-06-22T08:51:04;24.10;99.90
21672;DHT22;10997;52.242;8.168;2023-06-22T08:56:05;24.30;99.90
21672;DHT22;10997;52.242;8.168;2023-06-22T09:01:05;24.40;99.90
21672;DHT22;10997;52.242;8.168;2023-06-22T09:06:06;24.20;99.90
21672;DHT22;10997;52.242;8.168;2023-06-22T09:11:06;24.20;99.90
21672;DHT22;10997;52.242;8.168;2023-06-22T09:16:07;24.50;99.90
21672;DHT22;10997;52.242;8.168;2023-06-22T09:21:08;24.80;99.90
21672;DHT22;10997;52.242;8.168;2023-06-22T09:26:09;25.00;99.90
21672;DHT22;10997;52.242;8.168;2023-06-22T09:31:10;25.00;99.90
21672;DHT22;10997;52.242;8.168;2023-06-22T09:36:10;25.30;99.90
21672;DHT22;10997;52.242;8.168;2023-06-22T09:41:11;25.60;99.90
21672;DHT22;10997;52.242;8.168;2023-06-22T09:46:12;25.80;99.90
21672;DHT22;10997;52.242;8.168;2023-06-22T09:51:12;26.10;99.90
21672;DHT22;10997;52.242;8.168;2023-06-22T09:56:13;26.20;99.90
21672;DHT22;10997;52.242;8.168;2023-06-22T10:01:15;26.50;99.90
21672;DHT22;10997;52.242;8.168;2023-06-22T10:06:16;26.30;99.90
21672;DHT22;10997;52.242;8.168;2023-06-22T10:11:16;26.40;99.90
21672;DHT22;10997;52.242;8.168;2023-06-22T10:16:17;26.60;99.90
21672;DHT22;10997;52.242;8.168;2023-06-22T10:21:17;26.90;99.90
21672;DHT22;10997;52.242;8.168;2023-06-22T10:26:18;26.80;99.90
21672;DHT22;10997;52.242;8.168;2023-06-22T10:31:19;26.80;99.90
21672;DHT22;10997;52.242;8.168;2023-06-22T10:36:19;27.20;99.90
21672;DHT22;10997;52.242;8.168;2023-06-22T10:41:20;27.30;99.90
21672;DHT22;10997;52.242;8.168;2023-06-22T10:46:23;27.70;99.90
21672;DHT22;10997;52.242;8.168;2023-06-22T10:51:25;27.90;99.90
21672;DHT22;10997;52.242;8.168;2023-06-22T10:56:26;27.80;99.90
21672;DHT22;10997;52.242;8.168;2023-06-22T11:01:26;27.60;99.90
21672;DHT22;10997;52.242;8.168;2023-06-22T11:06:28;28.10;99.90
21672;DHT22;10997;52.242;8.168;2023-06-22T11:11:29;28.40;99.90
21672;DHT22;10997;52.242;8.168;2023-06-22T11:16:29;28.60;99.90
21672;DHT22;10997;52.242;8.168;2023-06-22T11:21:30;29.10;99.90
21672;DHT22;10997;52.242;8.168;2023-06-22T11:26:31;29.60;99.90
21672;DHT22;10997;52.242;8.168;2023-06-22T11:31:33;30.10;99.90
21672;DHT22;10997;52.242;8.168;2023-06-22T11:36:34;30.20;99.90
21672;DHT22;10997;52.242;8.168;2023-06-22T11:41:35;29.70;99.90
21672;DHT22;10997;52.242;8.168;2023-06-22T11:46:36;29.10;99.90
21672;DHT22;10997;52.242;8.168;2023-06-22T11:51:37;28.70;99.90
21672;DHT22;10997;52.242;8.168;2023-06-22T11:56:37;28.60;99.90
21672;DHT22;10997;52.242;8.168;2023-06-22T12:01:38;28.50;99.90
21672;DHT22;10997;52.242;8.168;2023-06-22T12:06:38;28.80;99.90
21672;DHT22;10997;52.242;8.168;2023-06-22T12:11:42;28.90;99.90
21672;DHT22;10997;52.242;8.168;2023-06-22T12:16:42;28.90;99.90
21672;DHT22;10997;52.242;8.168;2023-06-22T12:21:44;28.80;99.90
21672;DHT22;10997;52.242;8.168;2023-06-22T12:26:46;29.10;99.90
21672;DHT22;10997;52.242;8.168;2023-06-22T12:31:46;28.90;99.90
21672;DHT22;10997;52.242;8.168;2023-06-22T12:36:47;28.80;99.90
21672;DHT22;10997;52.242;8.168;2023-06-22T12:41:49;28.80;99.90
21672;DHT22;10997;52.242;8.168;2023-06-22T12:46:49;28.50;99.90
21672;DHT22;10997;52.242;8.168;2023-06-22T12:51:50;28.30;99.90
21672;DHT22;10997;52.242;8.168;2023-06-22T12:56:50;28.20;99.90
21672;DHT22;10997;52.242;8.168;2023-06-22T13:01:51;27.90;99.90
21672;DHT22;10997;52.242;8.168;2023-06-22T13:06:52;27.60;99.90
21672;DHT22;10997;52.242;8.168;2023-06-22T13:11:52;27.40;99.90
21672;DHT22;10997;52.242;8.168;2023-06-22T13:16:53;27.30;99.90
21672;DHT22;10997;52.242;8.168;2023-06-22T13:21:53;27.10;99.90
21672;DHT22;10997;52.242;8.168;2023-06-22T13:26:54;27.00;99.90
21672;DHT22;10997;52.242;8.168;2023-06-22T13:31:55;26.80;99.90
21672;DHT22;10997;52.242;8.168;2023-06-22T13:36:57;26.50;99.90
21672;DHT22;10997;52.242;8.168;2023-06-22T13:41:58;26.00;99.90
21672;DHT22;10997;52.242;8.168;2023-06-22T13:46:59;25.60;99.90
21672;DHT22;10997;52.242;8.168;2023-06-22T13:52:00;25.20;99.90
21672;DHT22;10997;52.242;8.168;2023-06-22T13:57:00;24.90;99.90
21672;DHT22;10997;52.242;8.168;2023-06-22T14:02:01;24.70;99.90
21672;DHT22;10997;52.242;8.168;2023-06-22T14:07:01;24.50;99.90
21672;DHT22;10997;52.242;8.168;2023-06-22T14:12:08;24.00;99.90
21672;DHT22;10997;52.242;8.168;2023-06-22T14:17:09;23.70;99.90
21672;DHT22;10997;52.242;8.168;2023-06-22T14:22:10;23.50;99.90
21672;DHT22;10997;52.242;8.168;2023-06-22T14:27:10;23.40;99.90
21672;DHT22;10997;52.242;8.168;2023-06-22T14:32:11;23.30;99.90
21672;DHT22;10997;52.242;8.168;2023-06-22T14:37:11;23.30;99.90
21672;DHT22;10997;52.242;8.168;2023-06-22T14:42:15;23.30;99.90
21672;DHT22;10997;52.242;8.168;2023-06-22T14:47:16;23.20;99.90
21672;DHT22;10997;52.242;8.168;2023-06-22T14:52:18;23.30;99.90
21672;DHT22;10997;52.242;8.168;2023-06-22T14:57:19;23.40;99.90
21672;DHT22;10997;52.242;8.168;2023-06-22T15:02:21;23.60;99.90
21672;DHT22;10997;52.242;8.168;2023-06-22T15:07:21;23.60;99.90
21672;DHT22;10997;52.242;8.168;2023-06-22T15:12:22;23.60;99.90
21672;DHT22;10997;52.242;8.168;2023-06-22T15:17:22;23.60;99.90
21672;DHT22;10997;52.242;8.168;2023-06-22T15:22:23;23.50;99.90
21672;DHT22;10997;52.242;8.168;2023-06-22T15:27:24;23.50;99.90
21672;DHT22;10997;52.242;8.168;2023-06-22T15:32:25;23.80;99.90
21672;DHT22;10997;52.242;8.168;2023-06-22T15:37:25;24.20;99.90
21672;DHT22;10997;52.242;8.168;2023-06-22T15:42:26;24.30;99.90
21672;DHT22;10997;52.242;8.168;2023-06-22T15:47:26;24.10;99.90
21672;DHT22;10997;52.242;8.168;2023-06-22T15:52:27;24.10;99.90
21672;DHT22;10997;52.242;8.168;2023-06-22T15:57:28;24.00;99.90
21672;DHT22;10997;52.242;8.168;2023-06-22T16:02:29;23.70;99.90
21672;DHT22;10997;52.242;8.168;2023-06-22T16:07:30;23.60;99.90
21672;DHT22;10997;52.242;8.168;2023-06-22T16:12:30;23.40;99.90
21672;DHT22;10997;52.242;8.168;2023-06-22T16:17:31;23.30;99.90
21672;DHT22;10997;52.242;8.168;2023-06-22T16:22:32;23.30;99.90
21672;DHT22;10997;52.242;8.168;2023-06-22T16:27:32;23.20;99.90
21672;DHT22;10997;52.242;8.168;2023-06-22T16:32:33;23.20;99.90
21672;DHT22;10997;52.242;8.168;2023-06-22T16:37:34;23.10;99.90
21672;DHT22;10997;52.242;8.168;2023-06-22T16:42:34;23.10;99.90
21672;DHT22;10997;52.242;8.168;2023-06-22T16:47:35;23.00;99.90
21672;DHT22;10997;52.242;8.168;2023-06-22T16:52:35;22.80;99.90
21672;DHT22;10997;52.242;8.168;2023-06-22T16:57:37;22.70;99.90
21672;DHT22;10997;52.242;8.168;2023-06-22T17:02:50;22.50;99.90
21672;DHT22;10997;52.242;8.168;2023-06-22T17:07:58;22.30;99.90
21672;DHT22;10997;52.242;8.168;2023-06-22T17:13:03;22.20;99.90
21672;DHT22;10997;52.242;8.168;2023-06-22T17:18:05;22.10;99.90
21672;DHT22;10997;52.242;8.168;2023-06-22T17:23:06;22.10;99.90
21672;DHT22;10997;52.242;8.168;2023-06-22T17:28:07;22.00;99.90
21672;DHT22;10997;52.242;8.168;2023-06-22T17:33:15;21.90;99.90
21672;DHT22;10997;52.242;8.168;2023-06-22T17:38:21;21.80;99.90
21672;DHT22;10997;52.242;8.168;2023-06-22T17:43:22;21.80;99.90
21672;DHT22;10997;52.242;8.168;2023-06-22T17:48:23;21.70;99.90
21672;DHT22;10997;52.242;8.168;2023-06-22T17:53:26;21.50;99.90
21672;DHT22;10997;52.242;8.168;2023-06-22T17:58:28;21.30;99.90
21672;DHT22;10997;52.242;8.168;2023-06-22T18:03:28;21.20;99.90
21672;DHT22;10997;52.242;8.168;2023-06-22T18:08:29;21.00;99.90
21672;DHT22;10997;52.242;8.168;2023-06-22T18:13:30;20.80;99.90
21672;DHT22;10997;52.242;8.168;2023-06-22T18:18:33;20.80;99.90
21672;DHT22;10997;52.242;8.168;2023-06-22T18:23:34;20.80;99.90
21672;DHT22;10997;52.242;8.168;2023-06-22T18:28:36;20.80;99.90
21672;DHT22;10997;52.242;8.168;2023-06-22T18:33:37;20.80;99.90
21672;DHT22;10997;52.242;8.168;2023-06-22T18:38:43;20.80;99.90
21672;DHT22;10997;52.242;8.168;2023-06-22T18:43:51;20.80;99.90
21672;DHT22;10997;52.242;8.168;2023-06-22T18:48:52;20.80;99.90
21672;DHT22;10997;52.242;8.168;2023-06-22T18:54:02;20.70;99.90
21672;DHT22;10997;52.242;8.168;2023-06-22T18:59:11;20.60;99.90
21672;DHT22;10997;52.242;8.168;2023-06-22T19:04:15;20.60;99.90
21672;DHT22;10997;52.242;8.168;2023-06-22T19:09:17;20.60;99.90
21672;DHT22;10997;52.242;8.168;2023-06-22T19:14:20;20.50;99.90
21672;DHT22;10997;52.242;8.168;2023-06-22T19:19:24;20.40;99.90
21672;DHT22;10997;52.242;8.168;2023-06-22T19:24:29;20.40;99.90
21672;DHT22;10997;52.242;8.168;2023-06-22T19:29:30;20.40;99.90
21672;DHT22;10997;52.242;8.168;2023-06-22T19:34:34;20.30;99.90
21672;DHT22;10997;52.242;8.168;2023-06-22T19:39:35;20.30;99.90
21672;DHT22;10997;52.242;8.168;2023-06-22T19:44:36;20.30;99.90
21672;DHT22;10997;52.242;8.168;2023-06-22T19:49:37;20.20;99.90
21672;DHT22;10997;52.242;8.168;2023-06-22T19:54:41;20.20;99.90
21672;DHT22;10997;52.242;8.168;2023-06-22T19:59:41;20.10;99.90
21672;DHT22;10997;52.242;8.168;2023-06-22T20:04:44;20.00;99.90
21672;DHT22;10997;52.242;8.168;2023-06-22T20:09:45;20.00;99.90
21672;DHT22;10997;52.242;8.168;2023-06-22T20:14:46;20.00;99.90
21672;DHT22;10997;52.242;8.168;2023-06-22T20:19:53;19.90;99.90
21672;DHT22;10997;52.242;8.168;2023-06-22T20:24:54;19.90;99.90
21672;DHT22;10997;52.242;8.168;2023-06-22T20:29:54;19.90;99.90
21672;DHT22;10997;52.242;8.168;2023-06-22T20:34:55;19.80;99.90
21672;DHT22;10997;52.242;8.168;2023-06-22T20:39:56;19.80;99.90
21672;DHT22;10997;52.242;8.168;2023-06-22T20:44:56;19.70;99.90
21672;DHT22;10997;52.242;8.168;2023-06-22T20:49:58;19.70;99.90
21672;DHT22;10997;52.242;8.168;2023-06-22T20:54:59;19.70;99.90
21672;DHT22;10997;52.242;8.168;2023-06-22T21:00:03;19.60;99.90
21672;DHT22;10997;52.242;8.168;2023-06-22T21:05:07;19.60;99.90
21672;DHT22;10997;52.242;8.168;2023-06-22T21:10:09;19.50;99.90
21672;DHT22;10997;52.242;8.168;2023-06-22T21:15:09;19.50;99.90
21672;DHT22;10997;52.242;8.168;2023-06-22T21:20:10;19.50;99.90
21672;DHT22;10997;52.242;8.168;2023-06-22T21:25:13;19.50;99.90
21672;DHT22;10997;52.242;8.168;2023-06-22T21:30:14;19.40;99.90
21672;DHT22;10997;52.242;8.168;2023-06-22T21:35:18;19.50;99.90
21672;DHT22;10997;52.242;8.168;2023-06-22T21:40:18;19.50;99.90
21672;DHT22;10997;52.242;8.168;2023-06-22T21:45:19;19.40;99.90
21672;DHT22;10997;52.242;8.168;2023-06-22T21:50:20;19.40;99.90
21672;DHT22;10997;52.242;8.168;2023-06-22T21:55:20;19.40;99.90
21672;DHT22;10997;52.242;8.168;2023-06-22T22:00:21;19.40;99.90
21672;DHT22;10997;52.242;8.168;2023-06-22T22:05:21;19.40;99.90
21672;DHT22;10997;52.242;8.168;2023-06-22T22:10:23;19.40;99.90
21672;DHT22;10997;52.242;8.168;2023-06-22T22:15:23;19.40;99.90
21672;DHT22;10997;52.242;8.168;2023-06-22T22:20:24;19.40;99.90
21672;DHT22;10997;52.242;8.168;2023-06-22T22:25:24;19.50;99.90
21672;DHT22;10997;52.242;8.168;2023-06-22T22:30:26;19.50;99.90
21672;DHT22;10997;52.242;8.168;2023-06-22T22:35:27;19.50;99.90
21672;DHT22;10997;52.242;8.168;2023-06-22T22:40:27;19.50;99.90
21672;DHT22;10997;52.242;8.168;2023-06-22T22:45:28;19.50;99.90
21672;DHT22;10997;52.242;8.168;2023-06-22T22:50:29;19.40;99.90
21672;DHT22;10997;52.242;8.168;2023-06-22T22:55:29;19.40;99.90
21672;DHT22;10997;52.242;8.168;2023-06-22T23:00:31;19.40;99.90
21672;DHT22;10997;52.242;8.168;2023-06-22T23:05:32;19.30;99.90
21672;DHT22;10997;52.242;8.168;2023-06-22T23:10:33;19.20;99.90
21672;DHT22;10997;52.242;8.168;2023-06-22T23:15:34;19.20;99.90
21672;DHT22;10997;52.242;8.168;2023-06-22T23:20:35;19.10;99.90
21672;DHT22;10997;52.242;8.168;2023-06-22T23:25:35;19.00;99.90
21672;DHT22;10997;52.242;8.168;2023-06-22T23:30:37;18.70;99.90
21672;DHT22;10997;52.242;8.168;2023-06-22T23:35:37;18.60;99.90
21672;DHT22;10997;52.242;8.168;2023-06-22T23:40:40;18.40;99.90
21672;DHT22;10997;52.242;8.168;2023-06-22T23:45:41;18.30;99.90
21672;DHT22;10997;52.242;8.168;2023-06-22T23:50:41;18.20;99.90
21672;DHT22;10997;52.242;8.168;2023-06-22T23:55:42;18.00;99.90
